Rechercher aéroport 
image banner adimage banner adimage banner ad
image banner ad

10PA - Piac

Situé à Essington, United States

ICAO - 10PA, IATA -

Données fournies par Airmate  

Information générale

Coordonnées: N39°51'45" W75°18'38"
Élévation : 8 feet MSL.
Variation magnétique : -12° East
Voir autres Aéroports à Pennsylvania

Données opérationnelles

Special qualification required
Heure actuelle UTC:
Heure actuelle locale:
Météo à : KPHL - Philadelphia Intl ( 6 km )
METAR: KPHL 150528Z 07003KT 10SM SCT055 BKN100 OVC140 19/18 A2980 RMK AO2 LTG DSNT NE AND E RAE26 P0003 T01940178 $
TAF: KPHL 150456Z 1505/1606 21006KT P6SM BKN050 TEMPO 1505/1506 2SM TSRA BR OVC015CB FM150600 01005KT P6SM OVC015 FM151400 30010KT P6SM SCT020 BKN040 FM151700 31010G19KT P6SM BKN250
Voir NOTAMs / SUP AIP / TFR affectant cet aéroport [VIEW]
Fréquences de communication: [VIEW]

Pistes:

Coordonnées de l'aéroport

Adresse: Essington United States

Vue satellite de 10PA